Time;durP1;ratioP1;P1;durP2;ratioP2;P2;SDS_P1;SDS_P2;PMS_P1;PMS_P2;Temp;Humidity;BMP_temperature;BMP_pressure;BME280_temperature;BME280_humidity;BME280_pressure;Samples;Min_cycle;Max_cycle;Signal;HPM_P1;HPM_P2
2024/02/20 00:03:00;;;;;;;5.30;2.00;;;;;;;;;;103780;1289;545633;-73
2024/02/20 00:06:38;;;;;;;5.90;2.40;;;;;;;;;;103756;1294;544944;-73
2024/02/20 00:10:16;;;;;;;4.40;1.90;;;;;;;;;;103859;1288;544974;-73
2024/02/20 00:13:53;;;;;;;5.10;2.00;;;;;;;;;;103407;1291;545639;-73
2024/02/20 00:17:27;;;;;;;5.90;2.30;;;;;;;;;;103856;1301;545152;-71
2024/02/20 00:21:08;;;;;;;5.60;2.20;;;;;;;;;;103749;1290;545858;-72
2024/02/20 00:24:45;;;;;;;4.50;2.00;;;;;;;;;;103826;1289;545631;-73
2024/02/20 00:28:23;;;;;;;5.40;2.40;;;;;;;;;;103595;1292;545987;-72
2024/02/20 00:32:00;;;;;;;6.10;2.50;;;;;;;;;;103724;1293;544958;-72
2024/02/20 00:35:38;;;;;;;6.40;2.50;;;;;;;;;;103561;1292;546050;-73
2024/02/20 00:39:16;;;;;;;6.30;2.40;;;;;;;;;;103744;1289;545061;-73
2024/02/20 00:42:52;;;;;;;6.60;2.80;;;;;;;;;;103719;1291;544755;-73
2024/02/20 00:46:51;;;;;;;7.90;3.00;;;;;;;;;;103670;1295;547855;-73
2024/02/20 00:50:11;;;;;;;7.20;3.00;;;;;;;;;;103702;1292;544993;-72
2024/02/20 00:53:45;;;;;;;7.20;3.10;;;;;;;;;;103802;1292;544974;-72
2024/02/20 00:57:23;;;;;;;6.70;3.20;;;;;;;;;;103608;1292;545442;-72
2024/02/20 01:01:00;;;;;;;7.80;3.10;;;;;;;;;;103881;1289;545532;-73
2024/02/20 01:04:38;;;;;;;8.50;3.00;;;;;;;;;;103751;1290;545059;-73
2024/02/20 01:08:15;;;;;;;7.90;3.10;;;;;;;;;;103924;1295;545683;-72
2024/02/20 01:11:52;;;;;;;7.60;3.40;;;;;;;;;;103833;1290;545299;-72
2024/02/20 01:15:30;;;;;;;7.60;3.00;;;;;;;;;;103764;1289;545045;-72
2024/02/20 01:19:03;;;;;;;8.30;3.50;;;;;;;;;;103729;1294;545758;-72
2024/02/20 01:22:45;;;;;;;8.30;3.40;;;;;;;;;;103797;1289;544928;-73
2024/02/20 01:26:22;;;;;;;7.50;3.00;;;;;;;;;;103745;1290;545121;-73
2024/02/20 01:30:00;;;;;;;8.80;3.40;;;;;;;;;;103911;1292;545671;-72
2024/02/20 01:33:38;;;;;;;7.30;3.40;;;;;;;;;;103616;1291;545575;-72
2024/02/20 01:37:15;;;;;;;9.30;3.90;;;;;;;;;;103704;1291;544770;-73
2024/02/20 01:40:52;;;;;;;8.40;3.40;;;;;;;;;;103792;1289;545666;-73
2024/02/20 01:44:33;;;;;;;8.20;3.60;;;;;;;;;;104236;1286;545489;-73
2024/02/20 01:48:07;;;;;;;7.60;3.50;;;;;;;;;;103770;1295;544734;-72
2024/02/20 01:51:44;;;;;;;7.30;3.50;;;;;;;;;;103819;1289;545773;-73
2024/02/20 01:55:22;;;;;;;8.80;3.80;;;;;;;;;;103877;1289;544802;-73
2024/02/20 01:58:59;;;;;;;8.30;3.60;;;;;;;;;;103766;1292;545090;-73
2024/02/20 02:02:33;;;;;;;8.10;4.00;;;;;;;;;;104062;1288;544907;-73
2024/02/20 02:06:14;;;;;;;7.70;3.20;;;;;;;;;;103803;1290;545058;-73
2024/02/20 02:09:52;;;;;;;8.20;3.80;;;;;;;;;;103659;1293;545388;-73
2024/02/20 02:13:29;;;;;;;8.50;4.10;;;;;;;;;;103764;1289;544875;-73
2024/02/20 02:17:07;;;;;;;8.90;4.00;;;;;;;;;;103677;1292;545762;-73
2024/02/20 02:20:44;;;;;;;7.80;3.50;;;;;;;;;;103732;1289;545045;-72
2024/02/20 02:24:22;;;;;;;10.10;4.00;;;;;;;;;;103663;1289;544894;-73
2024/02/20 02:28:00;;;;;;;9.10;4.80;;;;;;;;;;103741;1290;544902;-72
2024/02/20 02:31:37;;;;;;;10.30;4.80;;;;;;;;;;103740;1289;544801;-72
2024/02/20 02:35:14;;;;;;;10.10;6.00;;;;;;;;;;103791;1289;546890;-72
2024/02/20 02:38:53;;;;;;;11.30;6.50;;;;;;;;;;103604;1291;544786;-73
2024/02/20 02:42:29;;;;;;;10.60;4.90;;;;;;;;;;104169;1286;545771;-72
2024/02/20 02:46:09;;;;;;;9.10;4.30;;;;;;;;;;103594;1291;544851;-73
2024/02/20 02:49:45;;;;;;;8.50;4.50;;;;;;;;;;103733;1292;544837;-73
2024/02/20 02:53:22;;;;;;;9.30;4.80;;;;;;;;;;103844;1289;545675;-73
2024/02/20 02:56:59;;;;;;;8.60;4.70;;;;;;;;;;103824;1289;545452;-73
2024/02/20 03:00:37;;;;;;;9.00;4.50;;;;;;;;;;103715;1290;545699;-72
2024/02/20 03:04:14;;;;;;;9.30;5.00;;;;;;;;;;103787;1289;545039;-73
2024/02/20 03:07:52;;;;;;;8.60;4.40;;;;;;;;;;103605;1291;545073;-72
2024/02/20 03:11:29;;;;;;;9.60;4.10;;;;;;;;;;103713;1292;545167;-73
2024/02/20 03:15:02;;;;;;;9.10;4.50;;;;;;;;;;103829;1290;544734;-71
2024/02/20 03:18:42;;;;;;;8.90;4.50;;;;;;;;;;103835;1288;544983;-72
2024/02/20 03:22:21;;;;;;;10.70;5.00;;;;;;;;;;103811;1290;545589;-72
2024/02/20 03:25:59;;;;;;;9.20;4.70;;;;;;;;;;103822;1294;544963;-73
2024/02/20 03:29:36;;;;;;;8.70;4.30;;;;;;;;;;103714;1291;545728;-73
2024/02/20 03:33:14;;;;;;;9.10;4.30;;;;;;;;;;103810;1289;544857;-73
2024/02/20 03:36:51;;;;;;;7.80;4.40;;;;;;;;;;103740;1292;544899;-72
2024/02/20 03:40:28;;;;;;;8.20;3.70;;;;;;;;;;103731;1289;545049;-72
2024/02/20 03:44:05;;;;;;;7.10;3.90;;;;;;;;;;103760;1291;544680;-72
2024/02/20 03:47:43;;;;;;;7.40;3.70;;;;;;;;;;103820;1291;545568;-73
2024/02/20 03:51:20;;;;;;;8.80;4.00;;;;;;;;;;104287;1285;544937;-72
2024/02/20 03:54:59;;;;;;;7.80;3.90;;;;;;;;;;103736;1290;544967;-73
2024/02/20 03:58:35;;;;;;;6.40;3.30;;;;;;;;;;103616;1291;544980;-71
2024/02/20 04:02:13;;;;;;;8.00;3.90;;;;;;;;;;103587;1295;546033;-72
2024/02/20 04:05:50;;;;;;;7.00;3.50;;;;;;;;;;103655;1290;544939;-72
2024/02/20 04:09:28;;;;;;;6.10;3.10;;;;;;;;;;103596;1297;545372;-72
2024/02/20 04:13:01;;;;;;;6.70;2.90;;;;;;;;;;103733;1292;545595;-70
2024/02/20 04:16:43;;;;;;;5.70;2.90;;;;;;;;;;103538;1291;544825;-73
2024/02/20 04:20:20;;;;;;;6.10;3.10;;;;;;;;;;103761;1294;545020;-73
2024/02/20 04:24:00;;;;;;;6.50;3.20;;;;;;;;;;103660;1289;544846;-73
2024/02/20 04:27:37;;;;;;;7.20;3.00;;;;;;;;;;103743;1289;545003;-73
2024/02/20 04:31:14;;;;;;;6.90;3.50;;;;;;;;;;103736;1290;544922;-73
2024/02/20 04:34:50;;;;;;;7.30;3.20;;;;;;;;;;103828;1289;544855;-73
2024/02/20 04:38:28;;;;;;;7.00;3.10;;;;;;;;;;103661;1291;545631;-73
2024/02/20 04:42:04;;;;;;;7.50;2.80;;;;;;;;;;104019;1289;544978;-73
2024/02/20 04:45:43;;;;;;;6.10;3.20;;;;;;;;;;103666;1291;545234;-73
2024/02/20 04:49:20;;;;;;;6.10;2.60;;;;;;;;;;103851;1291;544789;-72
2024/02/20 04:52:58;;;;;;;5.60;2.90;;;;;;;;;;103989;1286;545033;-72
2024/02/20 04:56:34;;;;;;;5.80;2.60;;;;;;;;;;103754;1290;544982;-73
2024/02/20 05:00:13;;;;;;;6.10;2.90;;;;;;;;;;103784;1301;545354;-73
2024/02/20 05:03:50;;;;;;;7.50;3.20;;;;;;;;;;103729;1292;544827;-73
2024/02/20 05:07:27;;;;;;;6.00;3.00;;;;;;;;;;103764;1291;545434;-73
2024/02/20 05:11:04;;;;;;;8.50;3.90;;;;;;;;;;104282;1286;544989;-73
2024/02/20 05:14:46;;;;;;;8.20;3.90;;;;;;;;;;103732;1292;544790;-72
2024/02/20 05:18:20;;;;;;;7.10;3.70;;;;;;;;;;103740;1291;545977;-73
2024/02/20 05:21:58;;;;;;;8.00;4.00;;;;;;;;;;103763;1291;545931;-73
2024/02/20 05:25:35;;;;;;;8.70;4.10;;;;;;;;;;103796;1289;544787;-72
2024/02/20 05:29:13;;;;;;;8.00;3.90;;;;;;;;;;103975;1288;544952;-74
2024/02/20 05:32:50;;;;;;;6.80;3.50;;;;;;;;;;103769;1289;545565;-73
2024/02/20 05:36:31;;;;;;;7.20;3.50;;;;;;;;;;103888;1291;545057;-72
2024/02/20 05:40:07;;;;;;;7.00;3.60;;;;;;;;;;103908;1291;544982;-73
2024/02/20 05:43:43;;;;;;;8.50;4.20;;;;;;;;;;103878;1291;545048;-73
2024/02/20 05:47:19;;;;;;;7.30;4.30;;;;;;;;;;103900;1292;545516;-73
2024/02/20 05:50:57;;;;;;;9.00;4.70;;;;;;;;;;103599;1295;544796;-73
2024/02/20 05:54:34;;;;;;;8.40;4.70;;;;;;;;;;103732;1292;545858;-73
2024/02/20 05:58:12;;;;;;;8.00;4.10;;;;;;;;;;103611;1291;545896;-73
2024/02/20 06:01:49;;;;;;;7.10;3.90;;;;;;;;;;103930;1290;545598;-73
2024/02/20 06:05:27;;;;;;;7.10;3.80;;;;;;;;;;103571;1290;544932;-73
2024/02/20 06:09:05;;;;;;;8.70;4.40;;;;;;;;;;103820;1292;545155;-73
2024/02/20 06:12:42;;;;;;;7.60;3.90;;;;;;;;;;103724;1291;544973;-73
2024/02/20 06:16:25;;;;;;;7.70;4.90;;;;;;;;;;103741;1289;544923;-73
2024/02/20 06:19:57;;;;;;;9.50;5.70;;;;;;;;;;103634;1293;545458;-73
2024/02/20 06:23:37;;;;;;;9.20;5.70;;;;;;;;;;103699;1295;545956;-72
2024/02/20 06:27:12;;;;;;;11.20;7.20;;;;;;;;;;103756;1289;544893;-73
2024/02/20 06:30:50;;;;;;;11.00;6.90;;;;;;;;;;103668;1290;545632;-73
2024/02/20 06:34:27;;;;;;;10.50;6.00;;;;;;;;;;103910;1292;545430;-73
2024/02/20 06:38:04;;;;;;;11.20;7.40;;;;;;;;;;103711;1292;544788;-73
2024/02/20 06:41:38;;;;;;;11.40;6.40;;;;;;;;;;103712;1291;544859;-73
2024/02/20 06:45:19;;;;;;;11.10;7.40;;;;;;;;;;103806;1296;545915;-74
2024/02/20 06:48:57;;;;;;;18.60;10.50;;;;;;;;;;103582;1291;544827;-73
2024/02/20 06:52:38;;;;;;;12.90;9.20;;;;;;;;;;103604;1295;545112;-73
2024/02/20 06:56:12;;;;;;;9.00;6.10;;;;;;;;;;103698;1292;544773;-73
2024/02/20 06:59:49;;;;;;;12.90;7.10;;;;;;;;;;103812;1292;545472;-73
2024/02/20 07:03:27;;;;;;;8.80;4.70;;;;;;;;;;103736;1292;544719;-73
2024/02/20 07:07:04;;;;;;;9.50;5.60;;;;;;;;;;104549;1282;545580;-73
2024/02/20 07:11:01;;;;;;;9.80;5.70;;;;;;;;;;103639;1297;547976;-74
2024/02/20 07:14:19;;;;;;;10.70;5.50;;;;;;;;;;103762;1293;546648;-73
2024/02/20 07:17:56;;;;;;;11.30;5.70;;;;;;;;;;103603;1292;545234;-73
2024/02/20 07:21:33;;;;;;;10.60;6.10;;;;;;;;;;103646;1291;546154;-73
2024/02/20 07:25:11;;;;;;;8.60;4.90;;;;;;;;;;103678;1291;545504;-71
2024/02/20 07:28:48;;;;;;;10.40;5.30;;;;;;;;;;103893;1289;544939;-73
2024/02/20 07:32:26;;;;;;;10.70;5.70;;;;;;;;;;103670;1297;544809;-73
2024/02/20 07:36:04;;;;;;;10.70;5.70;;;;;;;;;;103631;1293;545519;-73
2024/02/20 07:39:40;;;;;;;11.00;4.80;;;;;;;;;;103624;1292;545637;-72
2024/02/20 07:43:18;;;;;;;7.70;4.00;;;;;;;;;;103742;1292;545421;-74
2024/02/20 07:46:56;;;;;;;7.60;3.90;;;;;;;;;;103774;1289;545694;-73
2024/02/20 07:50:33;;;;;;;9.80;5.70;;;;;;;;;;103893;1289;545735;-73
2024/02/20 07:54:11;;;;;;;7.80;4.00;;;;;;;;;;103600;1294;544948;-73
2024/02/20 07:57:54;;;;;;;9.20;4.50;;;;;;;;;;103680;1292;547985;-74
2024/02/20 08:01:26;;;;;;;8.90;4.20;;;;;;;;;;103788;1291;546079;-72
2024/02/20 08:05:04;;;;;;;7.90;3.90;;;;;;;;;;103807;1289;545040;-72
2024/02/20 08:08:37;;;;;;;9.40;4.50;;;;;;;;;;104137;1285;544980;-71
2024/02/20 08:12:18;;;;;;;9.90;5.10;;;;;;;;;;103923;1292;545894;-73
2024/02/20 08:15:58;;;;;;;11.10;4.50;;;;;;;;;;103658;1292;545142;-74
2024/02/20 08:19:33;;;;;;;12.80;5.80;;;;;;;;;;103671;1290;545292;-73
2024/02/20 08:23:10;;;;;;;13.40;5.60;;;;;;;;;;103459;1302;544919;-73
2024/02/20 08:26:49;;;;;;;17.50;6.80;;;;;;;;;;103605;1289;545038;-73
2024/02/20 08:30:26;;;;;;;18.00;6.90;;;;;;;;;;103844;1288;545426;-73
2024/02/20 08:34:02;;;;;;;16.30;6.40;;;;;;;;;;103749;1289;544933;-73
2024/02/20 08:37:39;;;;;;;16.40;6.50;;;;;;;;;;103499;1292;545188;-74
2024/02/20 08:41:17;;;;;;;15.40;7.80;;;;;;;;;;103693;1292;544735;-73
2024/02/20 08:44:54;;;;;;;16.70;8.60;;;;;;;;;;103952;1289;546509;-73
2024/02/20 08:48:32;;;;;;;13.70;6.90;;;;;;;;;;103821;1290;545586;-73
2024/02/20 08:52:06;;;;;;;15.80;9.60;;;;;;;;;;103931;1293;545488;-73
2024/02/20 08:55:48;;;;;;;13.40;7.30;;;;;;;;;;103813;1289;544942;-73
2024/02/20 08:59:25;;;;;;;9.30;5.60;;;;;;;;;;103695;1290;545117;-71
2024/02/20 09:03:04;;;;;;;7.10;3.90;;;;;;;;;;103798;1292;545019;-72
2024/02/20 09:06:44;;;;;;;8.30;3.70;;;;;;;;;;104263;1285;544862;-71
2024/02/20 09:10:17;;;;;;;5.60;2.50;;;;;;;;;;103666;1289;545092;-71
2024/02/20 09:13:55;;;;;;;6.50;2.60;;;;;;;;;;103775;1289;544973;-72
2024/02/20 09:17:32;;;;;;;4.90;2.00;;;;;;;;;;103967;1288;545868;-72
2024/02/20 09:21:13;;;;;;;4.50;1.80;;;;;;;;;;103682;1291;544863;-72
2024/02/20 09:24:47;;;;;;;5.20;2.10;;;;;;;;;;103813;1289;545501;-72
2024/02/20 09:28:25;;;;;;;5.90;2.20;;;;;;;;;;103782;1291;545042;-72
2024/02/20 09:32:03;;;;;;;5.80;2.60;;;;;;;;;;103841;1292;545658;-72
2024/02/20 09:35:41;;;;;;;6.10;2.60;;;;;;;;;;103708;1295;545609;-72
2024/02/20 09:39:21;;;;;;;7.10;3.40;;;;;;;;;;103721;1290;545038;-72
2024/02/20 09:42:59;;;;;;;7.20;3.30;;;;;;;;;;103634;1295;544951;-73
2024/02/20 09:46:38;;;;;;;6.90;3.20;;;;;;;;;;104100;1286;546340;-72
2024/02/20 09:50:12;;;;;;;6.00;2.80;;;;;;;;;;104130;1286;545357;-73
2024/02/20 09:53:48;;;;;;;5.30;2.50;;;;;;;;;;103844;1289;544798;-73
2024/02/20 09:57:26;;;;;;;6.40;2.40;;;;;;;;;;103722;1289;546323;-73
2024/02/20 10:01:03;;;;;;;6.30;2.40;;;;;;;;;;103807;1289;544864;-73
2024/02/20 10:04:40;;;;;;;3.70;1.40;;;;;;;;;;104327;1287;544968;-71
2024/02/20 10:08:20;;;;;;;4.40;1.60;;;;;;;;;;103769;1292;544874;-72
2024/02/20 10:11:55;;;;;;;4.00;1.40;;;;;;;;;;103757;1291;544791;-72
2024/02/20 10:15:32;;;;;;;5.00;1.70;;;;;;;;;;103845;1289;545033;-72
2024/02/20 10:19:10;;;;;;;4.40;1.40;;;;;;;;;;103684;1291;544918;-73
2024/02/20 10:22:47;;;;;;;3.80;1.50;;;;;;;;;;103807;1289;544981;-72
2024/02/20 10:26:25;;;;;;;3.20;1.50;;;;;;;;;;103908;1288;545583;-74
2024/02/20 10:30:03;;;;;;;4.20;2.10;;;;;;;;;;103874;1290;546135;-73
2024/02/20 10:33:49;;;;;;;6.40;3.10;;;;;;;;;;103957;1289;545704;-73
2024/02/20 10:37:16;;;;;;;6.20;2.60;;;;;;;;;;103831;1292;545116;-73
2024/02/20 10:40:54;;;;;;;7.60;3.30;;;;;;;;;;103828;1293;545485;-73
2024/02/20 10:44:33;;;;;;;7.60;3.00;;;;;;;;;;103530;1295;545514;-73
2024/02/20 10:48:10;;;;;;;6.20;2.70;;;;;;;;;;103711;1292;545044;-72
2024/02/20 10:51:48;;;;;;;6.20;2.60;;;;;;;;;;103874;1289;545055;-73
2024/02/20 10:55:24;;;;;;;7.00;2.80;;;;;;;;;;103759;1291;545659;-73
2024/02/20 10:59:03;;;;;;;6.80;2.40;;;;;;;;;;103798;1288;545640;-72
2024/02/20 11:02:41;;;;;;;7.50;3.30;;;;;;;;;;103632;1291;545010;-73
2024/02/20 11:06:17;;;;;;;7.10;2.90;;;;;;;;;;103726;1289;545881;-72
2024/02/20 11:10:12;;;;;;;5.70;2.30;;;;;;;;;;103753;1290;545003;-72
2024/02/20 11:13:31;;;;;;;5.10;2.40;;;;;;;;;;103817;1292;546233;-72
2024/02/20 11:17:14;;;;;;;8.70;3.10;;;;;;;;;;103606;1291;544969;-72
2024/02/20 11:20:44;;;;;;;6.30;2.40;;;;;;;;;;104033;1289;544813;-72
2024/02/20 11:24:31;;;;;;;4.80;1.60;;;;;;;;;;103815;1292;544960;-72
2024/02/20 11:28:10;;;;;;;5.80;1.90;;;;;;;;;;103819;1290;545436;-73
2024/02/20 11:31:38;;;;;;;5.40;1.80;;;;;;;;;;103790;1290;544788;-73
2024/02/20 11:35:25;;;;;;;6.20;1.80;;;;;;;;;;103579;1291;547901;-73
2024/02/20 11:39:05;;;;;;;5.40;1.80;;;;;;;;;;103791;1289;545112;-73
2024/02/20 11:42:32;;;;;;;5.30;1.80;;;;;;;;;;103689;1292;545511;-73
2024/02/20 11:46:08;;;;;;;5.10;1.40;;;;;;;;;;103854;1289;545130;-73
2024/02/20 11:49:49;;;;;;;4.20;1.60;;;;;;;;;;103839;1294;544822;-73
2024/02/20 11:53:23;;;;;;;6.90;1.80;;;;;;;;;;103512;1292;545017;-73
2024/02/20 11:57:01;;;;;;;3.70;1.40;;;;;;;;;;103694;1289;544871;-73
2024/02/20 12:00:38;;;;;;;5.30;1.60;;;;;;;;;;103778;1289;545774;-73
2024/02/20 12:04:25;;;;;;;6.10;2.30;;;;;;;;;;103786;1292;546263;-73
2024/02/20 12:07:54;;;;;;;8.40;3.00;;;;;;;;;;103818;1289;545799;-73
2024/02/20 12:11:31;;;;;;;6.10;2.20;;;;;;;;;;103310;1293;545697;-74
2024/02/20 12:15:10;;;;;;;5.60;2.00;;;;;;;;;;103730;1295;544940;-73
2024/02/20 12:18:46;;;;;;;6.00;1.90;;;;;;;;;;103736;1290;544854;-74
2024/02/20 12:22:23;;;;;;;3.60;1.10;;;;;;;;;;103974;1289;545085;-73
2024/02/20 12:26:05;;;;;;;3.70;1.40;;;;;;;;;;103819;1292;544915;-73
2024/02/20 12:29:37;;;;;;;5.90;2.20;;;;;;;;;;103761;1292;544791;-73
2024/02/20 12:33:16;;;;;;;4.70;1.50;;;;;;;;;;103784;1295;544940;-73
2024/02/20 12:36:53;;;;;;;4.00;0.90;;;;;;;;;;103633;1295;544918;-73
2024/02/20 12:40:31;;;;;;;5.40;1.40;;;;;;;;;;103511;1290;544808;-72
2024/02/20 12:44:08;;;;;;;3.60;1.30;;;;;;;;;;104416;1282;545635;-72
2024/02/20 12:47:45;;;;;;;2.40;1.00;;;;;;;;;;103785;1289;544835;-73
2024/02/20 12:51:23;;;;;;;4.90;1.80;;;;;;;;;;103529;1289;545230;-73
2024/02/20 12:55:02;;;;;;;6.30;1.80;;;;;;;;;;104209;1288;544732;-73
2024/02/20 12:58:39;;;;;;;5.30;1.60;;;;;;;;;;103787;1290;544990;-73
2024/02/20 13:02:15;;;;;;;5.40;2.10;;;;;;;;;;103784;1289;545076;-72
2024/02/20 13:05:53;;;;;;;4.60;2.20;;;;;;;;;;103602;1291;545300;-73
2024/02/20 13:09:31;;;;;;;6.00;2.60;;;;;;;;;;103788;1289;544986;-72
2024/02/20 13:13:09;;;;;;;8.70;4.60;;;;;;;;;;103835;1292;545419;-73
2024/02/20 13:16:46;;;;;;;7.60;3.60;;;;;;;;;;103787;1292;544936;-72
2024/02/20 13:20:25;;;;;;;6.30;2.10;;;;;;;;;;103836;1291;544906;-73
2024/02/20 13:24:00;;;;;;;5.80;2.20;;;;;;;;;;103959;1288;545056;-73
2024/02/20 13:27:37;;;;;;;7.50;3.10;;;;;;;;;;103751;1289;545434;-72
2024/02/20 13:31:15;;;;;;;6.90;2.20;;;;;;;;;;103876;1289;545580;-72
2024/02/20 13:34:52;;;;;;;5.70;1.80;;;;;;;;;;103643;1295;546084;-73
2024/02/20 13:38:30;;;;;;;4.30;1.50;;;;;;;;;;103983;1289;545663;-73
2024/02/20 13:42:07;;;;;;;3.80;1.20;;;;;;;;;;104195;1291;545663;-75
2024/02/20 13:45:45;;;;;;;3.60;0.90;;;;;;;;;;103942;1299;544811;-73
2024/02/20 13:49:25;;;;;;;4.50;1.40;;;;;;;;;;103711;1288;544968;-74
2024/02/20 13:52:59;;;;;;;4.70;2.00;;;;;;;;;;103820;1289;545807;-73
2024/02/20 13:56:36;;;;;;;6.80;2.50;;;;;;;;;;103661;1291;544943;-73
2024/02/20 14:00:15;;;;;;;8.00;2.70;;;;;;;;;;104030;1295;545935;-72
2024/02/20 14:03:53;;;;;;;9.40;3.80;;;;;;;;;;103612;1290;545599;-73
2024/02/20 14:07:30;;;;;;;9.40;3.20;;;;;;;;;;103753;1289;545771;-73
2024/02/20 14:11:11;;;;;;;32.00;16.90;;;;;;;;;;103668;1292;544784;-73
2024/02/20 14:14:44;;;;;;;8.10;2.90;;;;;;;;;;104078;1288;544922;-73
2024/02/20 14:18:21;;;;;;;7.60;2.70;;;;;;;;;;103665;1291;545044;-73
2024/02/20 14:21:59;;;;;;;8.30;3.30;;;;;;;;;;103788;1289;544714;-73
2024/02/20 14:25:37;;;;;;;7.80;2.70;;;;;;;;;;103835;1292;544800;-73
2024/02/20 14:29:14;;;;;;;5.70;2.20;;;;;;;;;;103863;1289;544993;-71
2024/02/20 14:33:12;;;;;;;5.50;2.10;;;;;;;;;;103654;1295;547963;-72
2024/02/20 14:36:28;;;;;;;6.00;2.30;;;;;;;;;;103618;1292;545422;-73
2024/02/20 14:40:07;;;;;;;9.10;3.30;;;;;;;;;;103769;1290;545634;-72
2024/02/20 14:43:43;;;;;;;12.00;4.20;;;;;;;;;;104352;1288;544996;-72
2024/02/20 14:47:22;;;;;;;10.60;3.80;;;;;;;;;;103644;1295;544872;-72
2024/02/20 14:50:59;;;;;;;7.10;2.30;;;;;;;;;;103928;1289;545455;-71
2024/02/20 14:54:32;;;;;;;5.80;2.10;;;;;;;;;;103684;1288;545399;-71
2024/02/20 14:58:15;;;;;;;8.90;3.10;;;;;;;;;;103821;1289;544832;-71
2024/02/20 15:01:51;;;;;;;8.60;2.80;;;;;;;;;;103691;1288;545064;-72
2024/02/20 15:05:29;;;;;;;10.40;4.00;;;;;;;;;;103760;1291;544690;-72
2024/02/20 15:09:07;;;;;;;9.20;2.90;;;;;;;;;;103766;1290;545571;-72
2024/02/20 15:12:44;;;;;;;9.40;3.60;;;;;;;;;;103759;1290;544862;-72
2024/02/20 15:16:17;;;;;;;9.60;3.90;;;;;;;;;;103835;1292;545031;-70
2024/02/20 15:19:59;;;;;;;12.60;4.80;;;;;;;;;;103779;1289;546035;-72
2024/02/20 15:23:36;;;;;;;11.10;4.50;;;;;;;;;;103641;1291;545020;-72
2024/02/20 15:27:17;;;;;;;18.30;8.20;;;;;;;;;;103766;1290;545656;-72
2024/02/20 15:30:51;;;;;;;17.70;6.00;;;;;;;;;;103763;1289;545486;-72
2024/02/20 15:34:28;;;;;;;18.40;6.90;;;;;;;;;;104599;1282;544914;-71
2024/02/20 15:38:06;;;;;;;16.80;5.10;;;;;;;;;;103771;1291;545530;-72
2024/02/20 15:41:43;;;;;;;22.20;8.80;;;;;;;;;;103732;1292;544716;-72
2024/02/20 15:45:21;;;;;;;20.00;7.10;;;;;;;;;;103660;1291;546639;-73
2024/02/20 15:48:58;;;;;;;16.60;5.00;;;;;;;;;;103799;1289;544972;-72
2024/02/20 15:52:37;;;;;;;14.50;5.00;;;;;;;;;;103594;1291;544716;-69
2024/02/20 15:56:13;;;;;;;13.10;3.00;;;;;;;;;;103951;1292;545963;-71
2024/02/20 15:59:47;;;;;;;13.20;3.10;;;;;;;;;;103895;1289;544797;-71
2024/02/20 16:03:28;;;;;;;17.20;4.50;;;;;;;;;;103910;1289;544709;-71
2024/02/20 16:07:05;;;;;;;12.00;3.40;;;;;;;;;;103685;1293;545932;-72
2024/02/20 16:10:44;;;;;;;15.30;4.20;;;;;;;;;;103722;1292;544853;-72
2024/02/20 16:14:20;;;;;;;17.70;5.30;;;;;;;;;;103578;1292;545097;-73
2024/02/20 16:17:59;;;;;;;16.60;4.80;;;;;;;;;;103741;1292;545482;-71
2024/02/20 16:21:35;;;;;;;19.20;5.40;;;;;;;;;;103638;1291;545179;-71
2024/02/20 16:25:12;;;;;;;18.30;5.80;;;;;;;;;;103717;1292;545437;-72
2024/02/20 16:29:10;;;;;;;15.70;3.80;;;;;;;;;;103655;1292;548048;-72
2024/02/20 16:32:30;;;;;;;17.20;5.40;;;;;;;;;;103766;1289;545600;-72
2024/02/20 16:36:06;;;;;;;16.90;7.10;;;;;;;;;;103680;1295;545425;-72
2024/02/20 16:39:43;;;;;;;16.20;4.30;;;;;;;;;;103703;1295;545650;-72
2024/02/20 16:43:20;;;;;;;16.80;4.80;;;;;;;;;;103638;1291;544793;-72
2024/02/20 16:46:59;;;;;;;17.60;6.40;;;;;;;;;;103724;1296;545482;-71
2024/02/20 16:50:35;;;;;;;19.60;7.80;;;;;;;;;;103676;1292;544963;-71
2024/02/20 16:54:12;;;;;;;19.00;9.00;;;;;;;;;;103741;1291;545077;-73
2024/02/20 16:57:50;;;;;;;15.80;5.40;;;;;;;;;;103374;1291;545544;-72
2024/02/20 17:01:28;;;;;;;35.50;15.20;;;;;;;;;;103766;1289;544948;-73
2024/02/20 17:05:12;;;;;;;22.60;10.50;;;;;;;;;;104453;1290;545726;-72
2024/02/20 17:08:38;;;;;;;21.50;7.30;;;;;;;;;;103622;1294;545609;-70
2024/02/20 17:12:20;;;;;;;21.10;8.70;;;;;;;;;;103653;1292;544906;-73
2024/02/20 17:15:59;;;;;;;28.40;13.20;;;;;;;;;;103830;1289;545442;-72
2024/02/20 17:19:35;;;;;;;35.00;12.00;;;;;;;;;;103829;1290;544949;-72
2024/02/20 17:23:12;;;;;;;34.60;10.10;;;;;;;;;;103649;1292;544901;-72
2024/02/20 17:26:48;;;;;;;23.10;6.70;;;;;;;;;;103807;1290;545136;-72
2024/02/20 17:30:27;;;;;;;16.60;4.80;;;;;;;;;;103766;1289;544916;-72
2024/02/20 17:34:04;;;;;;;18.90;5.90;;;;;;;;;;103843;1292;544804;-72
2024/02/20 17:37:42;;;;;;;18.70;6.30;;;;;;;;;;103991;1289;544884;-72
2024/02/20 17:41:17;;;;;;;19.60;5.90;;;;;;;;;;103831;1289;546301;-73
2024/02/20 17:44:57;;;;;;;20.40;6.80;;;;;;;;;;103734;1289;544817;-72
2024/02/20 17:48:37;;;;;;;17.80;6.10;;;;;;;;;;103799;1295;545363;-71
2024/02/20 17:52:13;;;;;;;18.80;5.10;;;;;;;;;;103761;1292;545416;-73
2024/02/20 17:55:45;;;;;;;20.20;5.90;;;;;;;;;;103762;1292;545345;-73
2024/02/20 17:59:27;;;;;;;20.70;6.70;;;;;;;;;;103748;1291;544905;-72
2024/02/20 18:03:05;;;;;;;22.80;7.00;;;;;;;;;;103667;1291;545741;-72
2024/02/20 18:06:42;;;;;;;18.70;7.30;;;;;;;;;;103730;1292;544805;-73
2024/02/20 18:10:15;;;;;;;31.90;12.10;;;;;;;;;;103850;1289;545049;-71
2024/02/20 18:13:57;;;;;;;29.90;10.40;;;;;;;;;;103865;1290;544864;-73
2024/02/20 18:17:54;;;;;;;26.50;9.20;;;;;;;;;;103571;1308;547909;-73
2024/02/20 18:21:11;;;;;;;19.50;6.30;;;;;;;;;;103732;1290;545175;-72
2024/02/20 18:24:49;;;;;;;21.00;5.40;;;;;;;;;;103742;1289;545252;-72
2024/02/20 18:28:27;;;;;;;24.80;7.60;;;;;;;;;;103766;1290;545768;-73
2024/02/20 18:32:04;;;;;;;18.90;7.20;;;;;;;;;;103738;1291;544845;-73
2024/02/20 18:35:38;;;;;;;19.20;6.50;;;;;;;;;;103766;1289;544789;-73
2024/02/20 18:39:19;;;;;;;17.90;6.30;;;;;;;;;;103714;1291;545288;-73
2024/02/20 18:42:57;;;;;;;23.40;6.80;;;;;;;;;;103770;1289;546192;-72
2024/02/20 18:46:34;;;;;;;18.00;5.30;;;;;;;;;;103811;1295;545748;-72
2024/02/20 18:50:11;;;;;;;22.30;6.40;;;;;;;;;;103663;1291;545779;-73
2024/02/20 18:53:49;;;;;;;15.50;4.10;;;;;;;;;;103767;1289;544774;-73
2024/02/20 18:57:27;;;;;;;16.60;5.60;;;;;;;;;;103691;1297;545659;-72
2024/02/20 19:01:04;;;;;;;19.80;5.70;;;;;;;;;;103723;1292;545399;-73
2024/02/20 19:04:41;;;;;;;21.20;6.40;;;;;;;;;;103588;1291;545879;-72
2024/02/20 19:08:19;;;;;;;25.20;10.00;;;;;;;;;;103688;1292;546243;-72
2024/02/20 19:11:56;;;;;;;24.10;8.20;;;;;;;;;;103602;1291;545059;-73
2024/02/20 19:15:34;;;;;;;23.10;9.00;;;;;;;;;;103994;1288;545051;-72
2024/02/20 19:19:11;;;;;;;38.70;14.40;;;;;;;;;;103674;1289;544896;-72
2024/02/20 19:22:49;;;;;;;28.00;10.80;;;;;;;;;;103635;1291;544718;-73
2024/02/20 19:26:26;;;;;;;22.80;9.20;;;;;;;;;;103631;1292;544911;-73
2024/02/20 19:30:04;;;;;;;21.10;7.20;;;;;;;;;;103872;1289;544727;-73
2024/02/20 19:33:41;;;;;;;23.90;9.00;;;;;;;;;;103789;1289;544983;-73
2024/02/20 19:37:18;;;;;;;28.50;12.70;;;;;;;;;;104031;1292;545081;-73
2024/02/20 19:40:57;;;;;;;20.40;8.00;;;;;;;;;;104044;1292;545473;-73
2024/02/20 19:44:34;;;;;;;21.80;7.60;;;;;;;;;;103797;1289;544959;-73
2024/02/20 19:48:10;;;;;;;20.20;6.80;;;;;;;;;;103643;1295;546079;-72
2024/02/20 19:51:48;;;;;;;44.30;19.40;;;;;;;;;;104335;1284;545348;-72
2024/02/20 19:55:26;;;;;;;21.50;7.10;;;;;;;;;;103695;1290;545496;-73
2024/02/20 19:59:03;;;;;;;23.00;8.90;;;;;;;;;;103746;1292;545483;-73
2024/02/20 20:02:41;;;;;;;23.00;8.10;;;;;;;;;;103768;1292;545821;-72
2024/02/20 20:06:18;;;;;;;23.10;9.10;;;;;;;;;;103846;1294;545495;-72
2024/02/20 20:09:55;;;;;;;18.40;6.60;;;;;;;;;;103764;1292;545102;-71
2024/02/20 20:13:33;;;;;;;20.80;7.00;;;;;;;;;;103811;1292;545294;-72
2024/02/20 20:17:10;;;;;;;19.90;7.10;;;;;;;;;;103587;1295;545850;-72
2024/02/20 20:20:49;;;;;;;20.80;8.50;;;;;;;;;;103980;1286;544911;-71
2024/02/20 20:24:25;;;;;;;24.00;8.10;;;;;;;;;;103765;1289;546768;-73
2024/02/20 20:28:03;;;;;;;19.80;7.60;;;;;;;;;;103791;1290;544916;-72
2024/02/20 20:31:40;;;;;;;21.50;8.40;;;;;;;;;;103644;1291;545322;-72
2024/02/20 20:35:17;;;;;;;21.30;7.20;;;;;;;;;;104522;1289;544727;-72
2024/02/20 20:38:51;;;;;;;17.20;6.80;;;;;;;;;;103795;1289;544775;-72
2024/02/20 20:42:32;;;;;;;16.60;5.90;;;;;;;;;;103862;1290;545407;-72
2024/02/20 20:46:10;;;;;;;15.10;4.70;;;;;;;;;;103875;1288;544813;-73
2024/02/20 20:49:47;;;;;;;24.50;8.10;;;;;;;;;;103735;1290;544852;-72
2024/02/20 20:53:25;;;;;;;17.40;7.10;;;;;;;;;;103629;1292;544845;-72
2024/02/20 20:57:06;;;;;;;20.50;6.50;;;;;;;;;;103826;1292;545384;-73